This is the latest recevied weather packets stored in our database for station/object OE-11061. If no packets are shown the sender has not sent any weather packets the latest 10 day(s).
| Time | Temp. | Humidity | Pressure | Rain* | Wind** | Luminosity | Snow |
|---|---|---|---|---|---|---|---|
| 1787933121 | 20.56° C | 93% | 1014.6 hPa | 5.08 mm | - | 366 W/m² | - |
| 1787932521 | 20.56° C | 94% | 1015.2 hPa | 3.05 mm | - | 142 W/m² | - |
| 1787931694 | 20° C | 92% | 1017 hPa | 2.29 mm | - | 7 W/m² | - |
| 1787931321 | 20° C | 90% | 1015.2 hPa | 2.29 mm | - | 30 W/m² | - |
| 1787930721 | 20.56° C | 89% | 1015.4 hPa | 2.29 mm | - | 30 W/m² | - |
| 1787929894 | 21.11° C | 87% | 1015.6 hPa | 1.52 mm | - | 15 W/m² | - |
| 1787929520 | 23.33° C | 74% | 1014.3 hPa | 0 mm | - | 15 W/m² | - |
| 1787928920 | 23.33° C | 72% | 1014.4 hPa | 0 mm | - | 30 W/m² | - |
| 1787928094 | 23.89° C | 67% | 1013.1 hPa | 0 mm | - | 75 W/m² | - |
| 1787927720 | 24.44° C | 71% | 1012.9 hPa | 0 mm | - | 60 W/m² | - |
| 1787927120 | 24.44° C | 68% | 1012.6 hPa | 0 mm | - | 90 W/m² | - |
| 1787926294 | 25° C | 68% | 1011.9 hPa | 0 mm | - | 157 W/m² | - |
| 1787925921 | 25.56° C | 68% | 1011.9 hPa | 0 mm | - | 187 W/m² | - |
| 1787925321 | 25.56° C | 68% | 1011.4 hPa | 0 mm | - | 291 W/m² | - |
| 1787924494 | 25.56° C | 69% | 1011.3 hPa | 0 mm | - | 269 W/m² | - |
| 1787924121 | 25.56° C | 74% | 1011.2 hPa | 0 mm | - | 284 W/m² | - |
| 1787923521 | 25.56° C | 72% | 1011 hPa | 0 mm | - | 284 W/m² | - |
| 1787922692 | 25.56° C | 69% | 1010.8 hPa | 0 mm | - | 179 W/m² | - |
| 1787922320 | 26.11° C | 68% | 1011.1 hPa | 0 mm | - | 127 W/m² | - |
| 1787921721 | 27.78° C | 58% | 1009.9 hPa | 0 mm | - | 60 W/m² | - |
| 1787920893 | 28.89° C | 53% | 1009.1 hPa | 0 mm | - | 90 W/m² | - |
| 1787920521 | 30° C | 48% | 1008.3 hPa | 0 mm | - | 187 W/m² | - |
| 1787919921 | 31.67° C | 49% | 1007.9 hPa | 0 mm | - | 650 W/m² | - |
| 1787919094 | 32.78° C | 55% | 1007.1 hPa | 0 mm | - | 635 W/m² | - |
| 1787918720 | 32.22° C | 56% | 1006.8 hPa | 0 mm | - | 583 W/m² | - |
* Rain latest hour (hover to see other rain measurements)
** Current wind speed in m/s (hover to see current wind gust speed)